sensor_id;sensor_type;location;lat;lon;timestamp;temperature;humidity
24450;DHT22;13349;50.984;5.822;2023-09-19T00:00:21;15.20;99.90
24450;DHT22;13349;50.984;5.822;2023-09-19T00:02:52;15.30;99.90
24450;DHT22;13349;50.984;5.822;2023-09-19T00:05:19;15.40;99.90
24450;DHT22;13349;50.984;5.822;2023-09-19T00:07:49;15.30;99.90
24450;DHT22;13349;50.984;5.822;2023-09-19T00:10:17;15.40;99.90
24450;DHT22;13349;50.984;5.822;2023-09-19T00:12:44;15.30;99.90
24450;DHT22;13349;50.984;5.822;2023-09-19T00:15:11;15.30;99.90
24450;DHT22;13349;50.984;5.822;2023-09-19T00:17:40;15.30;99.90
24450;DHT22;13349;50.984;5.822;2023-09-19T00:20:09;15.30;99.90
24450;DHT22;13349;50.984;5.822;2023-09-19T00:22:41;15.30;99.90
24450;DHT22;13349;50.984;5.822;2023-09-19T00:25:08;15.30;99.90
24450;DHT22;13349;50.984;5.822;2023-09-19T00:27:37;15.30;99.90
24450;DHT22;13349;50.984;5.822;2023-09-19T00:30:07;15.30;99.90
24450;DHT22;13349;50.984;5.822;2023-09-19T00:32:41;15.20;99.90
24450;DHT22;13349;50.984;5.822;2023-09-19T00:35:09;15.20;99.90
24450;DHT22;13349;50.984;5.822;2023-09-19T00:37:37;15.10;99.90
24450;DHT22;13349;50.984;5.822;2023-09-19T00:40:05;15.10;99.90
24450;DHT22;13349;50.984;5.822;2023-09-19T00:42:36;15.10;99.90
24450;DHT22;13349;50.984;5.822;2023-09-19T00:45:03;15.20;99.90
24450;DHT22;13349;50.984;5.822;2023-09-19T00:47:32;15.10;99.90
24450;DHT22;13349;50.984;5.822;2023-09-19T00:50:00;15.10;99.90
24450;DHT22;13349;50.984;5.822;2023-09-19T00:52:28;15.10;99.90
24450;DHT22;13349;50.984;5.822;2023-09-19T00:54:55;15.10;99.90
24450;DHT22;13349;50.984;5.822;2023-09-19T00:57:23;15.10;99.90
24450;DHT22;13349;50.984;5.822;2023-09-19T00:59:50;15.10;99.90
24450;DHT22;13349;50.984;5.822;2023-09-19T01:02:20;15.10;99.90
24450;DHT22;13349;50.984;5.822;2023-09-19T01:04:47;15.10;99.90
24450;DHT22;13349;50.984;5.822;2023-09-19T01:07:16;15.10;99.90
24450;DHT22;13349;50.984;5.822;2023-09-19T01:09:44;15.20;99.90
24450;DHT22;13349;50.984;5.822;2023-09-19T01:12:11;15.20;99.90
24450;DHT22;13349;50.984;5.822;2023-09-19T01:14:46;15.30;99.90
24450;DHT22;13349;50.984;5.822;2023-09-19T01:17:19;15.20;99.90
24450;DHT22;13349;50.984;5.822;2023-09-19T01:22:46;15.20;99.90
24450;DHT22;13349;50.984;5.822;2023-09-19T01:25:19;15.20;99.90
24450;DHT22;13349;50.984;5.822;2023-09-19T01:27:53;15.20;99.90
24450;DHT22;13349;50.984;5.822;2023-09-19T01:30:29;15.20;99.90
24450;DHT22;13349;50.984;5.822;2023-09-19T01:32:58;15.30;99.90
24450;DHT22;13349;50.984;5.822;2023-09-19T01:35:25;15.20;99.90
24450;DHT22;13349;50.984;5.822;2023-09-19T01:37:52;15.30;99.90
24450;DHT22;13349;50.984;5.822;2023-09-19T01:40:20;15.20;99.90
24450;DHT22;13349;50.984;5.822;2023-09-19T01:42:49;15.10;99.90
24450;DHT22;13349;50.984;5.822;2023-09-19T01:45:22;15.10;99.90
24450;DHT22;13349;50.984;5.822;2023-09-19T01:47:52;15.10;99.90
24450;DHT22;13349;50.984;5.822;2023-09-19T01:50:22;15.10;99.90
24450;DHT22;13349;50.984;5.822;2023-09-19T01:52:57;15.00;99.90
24450;DHT22;13349;50.984;5.822;2023-09-19T01:55:26;15.00;99.90
24450;DHT22;13349;50.984;5.822;2023-09-19T01:57:58;15.00;99.90
24450;DHT22;13349;50.984;5.822;2023-09-19T02:00:26;14.90;99.90
24450;DHT22;13349;50.984;5.822;2023-09-19T02:02:56;15.00;99.90
24450;DHT22;13349;50.984;5.822;2023-09-19T02:05:25;14.90;99.90
24450;DHT22;13349;50.984;5.822;2023-09-19T02:07:52;14.90;99.90
24450;DHT22;13349;50.984;5.822;2023-09-19T02:10:21;14.90;99.90
24450;DHT22;13349;50.984;5.822;2023-09-19T02:12:48;14.80;99.90
24450;DHT22;13349;50.984;5.822;2023-09-19T02:15:15;14.70;99.90
24450;DHT22;13349;50.984;5.822;2023-09-19T02:17:42;14.70;99.90
24450;DHT22;13349;50.984;5.822;2023-09-19T02:20:11;14.70;99.90
24450;DHT22;13349;50.984;5.822;2023-09-19T02:22:40;14.70;99.90
24450;DHT22;13349;50.984;5.822;2023-09-19T02:25:07;14.70;99.90
24450;DHT22;13349;50.984;5.822;2023-09-19T02:27:34;14.70;99.90
24450;DHT22;13349;50.984;5.822;2023-09-19T02:30:01;14.70;99.90
24450;DHT22;13349;50.984;5.822;2023-09-19T02:32:29;14.70;99.90
24450;DHT22;13349;50.984;5.822;2023-09-19T02:34:56;14.70;99.90
24450;DHT22;13349;50.984;5.822;2023-09-19T02:37:25;14.70;99.90
24450;DHT22;13349;50.984;5.822;2023-09-19T02:39:52;14.70;99.90
24450;DHT22;13349;50.984;5.822;2023-09-19T02:42:19;14.60;99.90
24450;DHT22;13349;50.984;5.822;2023-09-19T02:44:46;14.60;99.90
24450;DHT22;13349;50.984;5.822;2023-09-19T02:47:13;14.60;99.90
24450;DHT22;13349;50.984;5.822;2023-09-19T02:49:42;14.60;99.90
24450;DHT22;13349;50.984;5.822;2023-09-19T02:52:09;14.70;99.90
24450;DHT22;13349;50.984;5.822;2023-09-19T02:54:38;14.60;99.90
24450;DHT22;13349;50.984;5.822;2023-09-19T02:57:04;14.60;99.90
24450;DHT22;13349;50.984;5.822;2023-09-19T02:59:33;14.70;99.90
24450;DHT22;13349;50.984;5.822;2023-09-19T03:02:02;14.70;99.90
24450;DHT22;13349;50.984;5.822;2023-09-19T03:04:30;14.70;99.90
24450;DHT22;13349;50.984;5.822;2023-09-19T03:06:58;14.70;99.90
24450;DHT22;13349;50.984;5.822;2023-09-19T03:09:26;14.70;99.90
24450;DHT22;13349;50.984;5.822;2023-09-19T03:11:54;14.80;99.90
24450;DHT22;13349;50.984;5.822;2023-09-19T03:14:22;14.80;99.90
24450;DHT22;13349;50.984;5.822;2023-09-19T03:16:49;14.70;99.90
24450;DHT22;13349;50.984;5.822;2023-09-19T03:19:17;14.70;99.90
24450;DHT22;13349;50.984;5.822;2023-09-19T03:21:46;14.70;99.90
24450;DHT22;13349;50.984;5.822;2023-09-19T03:24:14;14.80;99.90
24450;DHT22;13349;50.984;5.822;2023-09-19T03:26:41;14.80;99.90
24450;DHT22;13349;50.984;5.822;2023-09-19T03:29:09;14.70;99.90
24450;DHT22;13349;50.984;5.822;2023-09-19T03:31:36;14.70;99.90
24450;DHT22;13349;50.984;5.822;2023-09-19T03:34:03;14.70;99.90
24450;DHT22;13349;50.984;5.822;2023-09-19T03:36:30;14.60;99.90
24450;DHT22;13349;50.984;5.822;2023-09-19T03:38:57;14.60;99.90
24450;DHT22;13349;50.984;5.822;2023-09-19T03:41:24;14.50;99.90
24450;DHT22;13349;50.984;5.822;2023-09-19T03:43:51;14.60;99.90
24450;DHT22;13349;50.984;5.822;2023-09-19T03:46:19;14.60;99.90
24450;DHT22;13349;50.984;5.822;2023-09-19T03:48:46;14.60;99.90
24450;DHT22;13349;50.984;5.822;2023-09-19T03:51:13;14.60;99.90
24450;DHT22;13349;50.984;5.822;2023-09-19T03:53:40;14.60;99.90
24450;DHT22;13349;50.984;5.822;2023-09-19T03:56:07;14.60;99.90
24450;DHT22;13349;50.984;5.822;2023-09-19T03:58:34;14.60;99.90
24450;DHT22;13349;50.984;5.822;2023-09-19T04:01:04;14.60;99.90
24450;DHT22;13349;50.984;5.822;2023-09-19T04:03:33;14.60;99.90
24450;DHT22;13349;50.984;5.822;2023-09-19T04:06:11;14.60;99.90
24450;DHT22;13349;50.984;5.822;2023-09-19T04:08:38;14.60;99.90
24450;DHT22;13349;50.984;5.822;2023-09-19T04:11:05;14.60;99.90
24450;DHT22;13349;50.984;5.822;2023-09-19T04:13:32;14.60;99.90
24450;DHT22;13349;50.984;5.822;2023-09-19T04:15:59;14.60;99.90
24450;DHT22;13349;50.984;5.822;2023-09-19T04:18:26;14.60;99.90
24450;DHT22;13349;50.984;5.822;2023-09-19T04:20:54;14.60;99.90
24450;DHT22;13349;50.984;5.822;2023-09-19T04:23:21;14.60;99.90
24450;DHT22;13349;50.984;5.822;2023-09-19T04:25:48;14.60;99.90
24450;DHT22;13349;50.984;5.822;2023-09-19T04:28:15;14.60;99.90
24450;DHT22;13349;50.984;5.822;2023-09-19T04:30:42;14.60;99.90
24450;DHT22;13349;50.984;5.822;2023-09-19T04:33:09;14.60;99.90
24450;DHT22;13349;50.984;5.822;2023-09-19T04:35:39;14.70;99.90
24450;DHT22;13349;50.984;5.822;2023-09-19T04:38:09;14.70;99.90
24450;DHT22;13349;50.984;5.822;2023-09-19T04:40:37;14.80;99.90
24450;DHT22;13349;50.984;5.822;2023-09-19T04:43:05;14.70;99.90
24450;DHT22;13349;50.984;5.822;2023-09-19T04:45:33;14.70;82.00
24450;DHT22;13349;50.984;5.822;2023-09-19T04:48:00;14.60;99.90
24450;DHT22;13349;50.984;5.822;2023-09-19T04:50:28;14.60;99.90
24450;DHT22;13349;50.984;5.822;2023-09-19T04:52:55;14.60;99.90
24450;DHT22;13349;50.984;5.822;2023-09-19T04:55:23;14.60;99.90
24450;DHT22;13349;50.984;5.822;2023-09-19T04:57:50;14.70;99.90
24450;DHT22;13349;50.984;5.822;2023-09-19T05:00:16;14.70;99.90
24450;DHT22;13349;50.984;5.822;2023-09-19T05:02:45;14.60;99.90
24450;DHT22;13349;50.984;5.822;2023-09-19T05:05:12;14.60;99.90
24450;DHT22;13349;50.984;5.822;2023-09-19T05:07:40;14.60;99.90
24450;DHT22;13349;50.984;5.822;2023-09-19T05:10:08;14.60;99.90
24450;DHT22;13349;50.984;5.822;2023-09-19T05:12:37;14.60;99.90
24450;DHT22;13349;50.984;5.822;2023-09-19T05:15:04;14.60;99.90
24450;DHT22;13349;50.984;5.822;2023-09-19T05:17:32;14.70;99.90
24450;DHT22;13349;50.984;5.822;2023-09-19T05:19:59;14.60;99.90
24450;DHT22;13349;50.984;5.822;2023-09-19T05:22:41;14.60;99.90
24450;DHT22;13349;50.984;5.822;2023-09-19T05:25:08;14.40;99.90
24450;DHT22;13349;50.984;5.822;2023-09-19T05:27:37;14.40;99.90
24450;DHT22;13349;50.984;5.822;2023-09-19T05:30:04;14.50;99.90
24450;DHT22;13349;50.984;5.822;2023-09-19T05:32:32;14.40;99.90
24450;DHT22;13349;50.984;5.822;2023-09-19T05:34:59;14.50;99.90
24450;DHT22;13349;50.984;5.822;2023-09-19T05:37:26;14.50;99.90
24450;DHT22;13349;50.984;5.822;2023-09-19T05:39:53;14.50;99.90
24450;DHT22;13349;50.984;5.822;2023-09-19T05:42:20;14.50;99.90
24450;DHT22;13349;50.984;5.822;2023-09-19T05:44:48;14.60;99.90
24450;DHT22;13349;50.984;5.822;2023-09-19T05:47:15;14.60;99.90
24450;DHT22;13349;50.984;5.822;2023-09-19T05:49:42;14.60;99.90
24450;DHT22;13349;50.984;5.822;2023-09-19T05:52:09;14.50;99.90
24450;DHT22;13349;50.984;5.822;2023-09-19T05:54:36;14.50;99.90
24450;DHT22;13349;50.984;5.822;2023-09-19T05:57:03;14.40;99.90
24450;DHT22;13349;50.984;5.822;2023-09-19T05:59:30;14.40;99.90
24450;DHT22;13349;50.984;5.822;2023-09-19T06:02:00;14.40;99.90
24450;DHT22;13349;50.984;5.822;2023-09-19T06:04:27;14.40;99.90
24450;DHT22;13349;50.984;5.822;2023-09-19T06:06:56;14.40;99.90
24450;DHT22;13349;50.984;5.822;2023-09-19T06:09:23;14.40;99.90
24450;DHT22;13349;50.984;5.822;2023-09-19T06:11:51;14.50;99.90
24450;DHT22;13349;50.984;5.822;2023-09-19T06:14:18;14.50;99.90
24450;DHT22;13349;50.984;5.822;2023-09-19T06:16:45;14.50;99.90
24450;DHT22;13349;50.984;5.822;2023-09-19T06:19:14;14.60;99.90
24450;DHT22;13349;50.984;5.822;2023-09-19T06:21:41;14.60;99.90
24450;DHT22;13349;50.984;5.822;2023-09-19T06:24:08;14.70;99.90
24450;DHT22;13349;50.984;5.822;2023-09-19T06:26:34;14.70;99.90
24450;DHT22;13349;50.984;5.822;2023-09-19T06:29:01;14.80;99.90
24450;DHT22;13349;50.984;5.822;2023-09-19T06:31:33;14.80;99.90
24450;DHT22;13349;50.984;5.822;2023-09-19T06:33:59;14.80;99.90
24450;DHT22;13349;50.984;5.822;2023-09-19T06:36:28;14.80;99.90
24450;DHT22;13349;50.984;5.822;2023-09-19T06:38:54;14.80;99.90
24450;DHT22;13349;50.984;5.822;2023-09-19T06:41:21;14.80;99.90
24450;DHT22;13349;50.984;5.822;2023-09-19T06:43:50;14.90;99.90
24450;DHT22;13349;50.984;5.822;2023-09-19T06:46:19;14.90;99.90
24450;DHT22;13349;50.984;5.822;2023-09-19T06:48:46;14.90;99.90
24450;DHT22;13349;50.984;5.822;2023-09-19T06:51:13;15.00;99.90
24450;DHT22;13349;50.984;5.822;2023-09-19T06:53:43;14.90;99.90
24450;DHT22;13349;50.984;5.822;2023-09-19T06:56:10;15.00;99.90
24450;DHT22;13349;50.984;5.822;2023-09-19T06:58:37;15.00;99.90
24450;DHT22;13349;50.984;5.822;2023-09-19T07:01:04;15.10;99.90
24450;DHT22;13349;50.984;5.822;2023-09-19T07:03:31;15.10;99.90
24450;DHT22;13349;50.984;5.822;2023-09-19T07:05:59;15.20;99.90
24450;DHT22;13349;50.984;5.822;2023-09-19T07:08:25;15.20;99.90
24450;DHT22;13349;50.984;5.822;2023-09-19T07:10:55;15.20;99.90
24450;DHT22;13349;50.984;5.822;2023-09-19T07:13:22;15.20;99.90
24450;DHT22;13349;50.984;5.822;2023-09-19T07:15:50;15.20;99.90
24450;DHT22;13349;50.984;5.822;2023-09-19T07:18:17;15.30;99.90
24450;DHT22;13349;50.984;5.822;2023-09-19T07:20:45;15.30;99.90
24450;DHT22;13349;50.984;5.822;2023-09-19T07:23:15;15.40;99.90
24450;DHT22;13349;50.984;5.822;2023-09-19T07:25:42;15.50;99.90
24450;DHT22;13349;50.984;5.822;2023-09-19T07:28:10;15.50;99.90
24450;DHT22;13349;50.984;5.822;2023-09-19T07:30:37;15.50;99.90
24450;DHT22;13349;50.984;5.822;2023-09-19T07:33:08;15.50;99.90
24450;DHT22;13349;50.984;5.822;2023-09-19T07:35:36;15.60;99.90
24450;DHT22;13349;50.984;5.822;2023-09-19T07:38:05;15.70;99.90
24450;DHT22;13349;50.984;5.822;2023-09-19T07:40:32;15.80;99.90
24450;DHT22;13349;50.984;5.822;2023-09-19T07:42:59;15.80;1.00
24450;DHT22;13349;50.984;5.822;2023-09-19T07:45:28;15.80;1.00
24450;DHT22;13349;50.984;5.822;2023-09-19T07:47:55;15.90;1.00
24450;DHT22;13349;50.984;5.822;2023-09-19T07:50:22;15.90;1.00
24450;DHT22;13349;50.984;5.822;2023-09-19T07:52:51;15.90;1.00
24450;DHT22;13349;50.984;5.822;2023-09-19T07:55:20;15.90;99.90
24450;DHT22;13349;50.984;5.822;2023-09-19T07:57:49;16.00;1.00
24450;DHT22;13349;50.984;5.822;2023-09-19T08:00:16;16.00;99.90
24450;DHT22;13349;50.984;5.822;2023-09-19T08:02:44;16.10;1.00
24450;DHT22;13349;50.984;5.822;2023-09-19T08:05:13;16.10;99.90
24450;DHT22;13349;50.984;5.822;2023-09-19T08:07:42;16.20;99.90
24450;DHT22;13349;50.984;5.822;2023-09-19T08:10:10;16.20;1.00
24450;DHT22;13349;50.984;5.822;2023-09-19T08:12:38;16.20;99.90
24450;DHT22;13349;50.984;5.822;2023-09-19T08:15:11;16.30;1.00
24450;DHT22;13349;50.984;5.822;2023-09-19T08:17:38;16.40;1.00
24450;DHT22;13349;50.984;5.822;2023-09-19T08:20:07;16.50;1.00
24450;DHT22;13349;50.984;5.822;2023-09-19T08:22:42;16.60;99.90
24450;DHT22;13349;50.984;5.822;2023-09-19T08:25:11;16.60;50.30
24450;DHT22;13349;50.984;5.822;2023-09-19T08:27:38;16.70;1.00
24450;DHT22;13349;50.984;5.822;2023-09-19T08:30:06;16.80;1.00
24450;DHT22;13349;50.984;5.822;2023-09-19T08:32:33;16.70;1.00
24450;DHT22;13349;50.984;5.822;2023-09-19T08:35:00;16.70;99.90
24450;DHT22;13349;50.984;5.822;2023-09-19T08:37:28;16.80;99.90
24450;DHT22;13349;50.984;5.822;2023-09-19T08:39:55;16.90;99.90
24450;DHT22;13349;50.984;5.822;2023-09-19T08:42:23;17.00;99.90
24450;DHT22;13349;50.984;5.822;2023-09-19T08:44:50;16.90;1.00
24450;DHT22;13349;50.984;5.822;2023-09-19T08:47:23;17.00;1.00
24450;DHT22;13349;50.984;5.822;2023-09-19T08:49:53;17.00;1.00
24450;DHT22;13349;50.984;5.822;2023-09-19T08:52:27;17.00;1.00
24450;DHT22;13349;50.984;5.822;2023-09-19T08:54:59;16.90;1.00
24450;DHT22;13349;50.984;5.822;2023-09-19T08:57:29;17.10;1.00
24450;DHT22;13349;50.984;5.822;2023-09-19T09:00:01;17.20;1.00
24450;DHT22;13349;50.984;5.822;2023-09-19T09:02:31;17.30;1.00
24450;DHT22;13349;50.984;5.822;2023-09-19T09:04:59;17.30;99.90
24450;DHT22;13349;50.984;5.822;2023-09-19T09:07:27;17.30;99.90
24450;DHT22;13349;50.984;5.822;2023-09-19T09:09:55;17.30;99.90
24450;DHT22;13349;50.984;5.822;2023-09-19T09:12:23;17.30;99.90
24450;DHT22;13349;50.984;5.822;2023-09-19T09:14:51;17.30;1.00
24450;DHT22;13349;50.984;5.822;2023-09-19T09:17:18;17.50;53.10
24450;DHT22;13349;50.984;5.822;2023-09-19T09:19:45;17.70;1.00
24450;DHT22;13349;50.984;5.822;2023-09-19T09:22:12;17.70;1.00
24450;DHT22;13349;50.984;5.822;2023-09-19T09:24:51;17.70;1.00
24450;DHT22;13349;50.984;5.822;2023-09-19T09:27:20;17.70;1.00
24450;DHT22;13349;50.984;5.822;2023-09-19T09:29:50;17.80;1.00
24450;DHT22;13349;50.984;5.822;2023-09-19T09:32:18;17.90;99.90
24450;DHT22;13349;50.984;5.822;2023-09-19T09:34:45;18.00;99.90
24450;DHT22;13349;50.984;5.822;2023-09-19T09:37:13;18.30;99.90
24450;DHT22;13349;50.984;5.822;2023-09-19T09:39:41;18.30;1.00
24450;DHT22;13349;50.984;5.822;2023-09-19T09:42:29;18.40;1.00
24450;DHT22;13349;50.984;5.822;2023-09-19T09:47:44;18.60;1.00
24450;DHT22;13349;50.984;5.822;2023-09-19T09:50:29;18.40;1.00
24450;DHT22;13349;50.984;5.822;2023-09-19T09:53:07;18.50;99.90
24450;DHT22;13349;50.984;5.822;2023-09-19T09:58:36;18.50;99.90
24450;DHT22;13349;50.984;5.822;2023-09-19T10:01:08;18.70;99.90
24450;DHT22;13349;50.984;5.822;2023-09-19T10:03:41;18.30;99.90
24450;DHT22;13349;50.984;5.822;2023-09-19T10:06:11;18.50;51.80
24450;DHT22;13349;50.984;5.822;2023-09-19T10:08:57;18.70;1.00
24450;DHT22;13349;50.984;5.822;2023-09-19T10:11:28;18.80;1.00
24450;DHT22;13349;50.984;5.822;2023-09-19T10:13:57;18.80;1.00
24450;DHT22;13349;50.984;5.822;2023-09-19T10:16:32;18.70;1.00
24450;DHT22;13349;50.984;5.822;2023-09-19T10:19:01;18.80;1.00
24450;DHT22;13349;50.984;5.822;2023-09-19T10:21:28;18.70;1.00
24450;DHT22;13349;50.984;5.822;2023-09-19T10:23:56;18.40;1.00
24450;DHT22;13349;50.984;5.822;2023-09-19T10:26:25;18.40;1.00
24450;DHT22;13349;50.984;5.822;2023-09-19T10:28:57;18.30;1.00
24450;DHT22;13349;50.984;5.822;2023-09-19T10:31:27;18.40;1.00
24450;DHT22;13349;50.984;5.822;2023-09-19T10:33:54;18.50;1.00
24450;DHT22;13349;50.984;5.822;2023-09-19T10:36:22;18.30;1.00
24450;DHT22;13349;50.984;5.822;2023-09-19T10:38:51;18.60;1.00
24450;DHT22;13349;50.984;5.822;2023-09-19T10:41:20;18.60;1.00
24450;DHT22;13349;50.984;5.822;2023-09-19T10:43:48;18.70;1.00
24450;DHT22;13349;50.984;5.822;2023-09-19T10:46:16;18.80;1.00
24450;DHT22;13349;50.984;5.822;2023-09-19T10:48:44;18.80;1.00
24450;DHT22;13349;50.984;5.822;2023-09-19T10:51:15;18.80;1.00
24450;DHT22;13349;50.984;5.822;2023-09-19T10:53:47;18.80;1.00
24450;DHT22;13349;50.984;5.822;2023-09-19T10:56:17;18.80;1.00
24450;DHT22;13349;50.984;5.822;2023-09-19T10:58:45;18.90;1.00
24450;DHT22;13349;50.984;5.822;2023-09-19T11:01:13;19.00;1.00
24450;DHT22;13349;50.984;5.822;2023-09-19T11:03:42;19.10;1.00
24450;DHT22;13349;50.984;5.822;2023-09-19T11:06:10;19.10;1.00
24450;DHT22;13349;50.984;5.822;2023-09-19T11:08:55;19.40;1.00
24450;DHT22;13349;50.984;5.822;2023-09-19T11:11:43;19.40;1.00
24450;DHT22;13349;50.984;5.822;2023-09-19T11:28:29;20.30;99.90
24450;DHT22;13349;50.984;5.822;2023-09-19T11:30:57;20.10;99.90
24450;DHT22;13349;50.984;5.822;2023-09-19T11:33:25;20.10;99.90
24450;DHT22;13349;50.984;5.822;2023-09-19T11:36:01;20.30;99.90
24450;DHT22;13349;50.984;5.822;2023-09-19T11:46:53;20.20;99.90
24450;DHT22;13349;50.984;5.822;2023-09-19T11:49:27;20.30;99.90
24450;DHT22;13349;50.984;5.822;2023-09-19T11:51:55;20.10;99.90
24450;DHT22;13349;50.984;5.822;2023-09-19T11:54:23;20.20;99.90
24450;DHT22;13349;50.984;5.822;2023-09-19T11:56:54;20.20;99.90
24450;DHT22;13349;50.984;5.822;2023-09-19T11:59:21;20.50;99.90
24450;DHT22;13349;50.984;5.822;2023-09-19T12:01:50;20.20;94.10
24450;DHT22;13349;50.984;5.822;2023-09-19T12:04:21;20.20;99.90
24450;DHT22;13349;50.984;5.822;2023-09-19T12:07:03;20.50;97.10
24450;DHT22;13349;50.984;5.822;2023-09-19T12:09:31;20.60;99.90
24450;DHT22;13349;50.984;5.822;2023-09-19T12:11:58;20.70;93.20
24450;DHT22;13349;50.984;5.822;2023-09-19T12:14:25;20.90;75.60
24450;DHT22;13349;50.984;5.822;2023-09-19T12:16:56;21.00;58.60
24450;DHT22;13349;50.984;5.822;2023-09-19T12:19:27;21.50;48.30
24450;DHT22;13349;50.984;5.822;2023-09-19T12:21:55;21.50;26.10
24450;DHT22;13349;50.984;5.822;2023-09-19T12:24:23;21.40;7.40
24450;DHT22;13349;50.984;5.822;2023-09-19T12:26:52;21.30;1.00
24450;DHT22;13349;50.984;5.822;2023-09-19T12:29:19;21.10;1.00
24450;DHT22;13349;50.984;5.822;2023-09-19T12:31:50;20.90;1.00
24450;DHT22;13349;50.984;5.822;2023-09-19T12:34:19;20.90;3.50
24450;DHT22;13349;50.984;5.822;2023-09-19T12:36:48;20.90;1.00
24450;DHT22;13349;50.984;5.822;2023-09-19T12:39:24;20.90;1.00
24450;DHT22;13349;50.984;5.822;2023-09-19T12:41:52;21.10;1.00
24450;DHT22;13349;50.984;5.822;2023-09-19T12:44:20;20.80;1.00
24450;DHT22;13349;50.984;5.822;2023-09-19T12:46:50;20.90;1.00
24450;DHT22;13349;50.984;5.822;2023-09-19T12:49:17;20.60;1.00
24450;DHT22;13349;50.984;5.822;2023-09-19T12:51:45;20.50;1.00
24450;DHT22;13349;50.984;5.822;2023-09-19T12:54:14;20.30;3.20
24450;DHT22;13349;50.984;5.822;2023-09-19T12:56:42;20.40;14.30
24450;DHT22;13349;50.984;5.822;2023-09-19T12:59:12;20.30;17.50
24450;DHT22;13349;50.984;5.822;2023-09-19T13:01:40;20.20;63.70
24450;DHT22;13349;50.984;5.822;2023-09-19T13:04:15;20.00;78.90
24450;DHT22;13349;50.984;5.822;2023-09-19T13:06:43;20.10;66.40
24450;DHT22;13349;50.984;5.822;2023-09-19T13:09:11;20.10;93.80
24450;DHT22;13349;50.984;5.822;2023-09-19T13:11:41;20.20;95.70
24450;DHT22;13349;50.984;5.822;2023-09-19T13:14:13;20.20;91.90
24450;DHT22;13349;50.984;5.822;2023-09-19T13:16:52;20.40;99.90
24450;DHT22;13349;50.984;5.822;2023-09-19T13:19:34;20.30;87.10
24450;DHT22;13349;50.984;5.822;2023-09-19T13:22:01;19.90;99.90
24450;DHT22;13349;50.984;5.822;2023-09-19T13:24:28;19.80;99.90
24450;DHT22;13349;50.984;5.822;2023-09-19T13:26:57;19.60;99.90
24450;DHT22;13349;50.984;5.822;2023-09-19T13:29:25;19.60;99.90
24450;DHT22;13349;50.984;5.822;2023-09-19T13:31:52;19.70;99.90
24450;DHT22;13349;50.984;5.822;2023-09-19T13:34:20;19.70;99.90
24450;DHT22;13349;50.984;5.822;2023-09-19T13:36:47;19.80;99.90
24450;DHT22;13349;50.984;5.822;2023-09-19T13:39:14;19.90;99.90
24450;DHT22;13349;50.984;5.822;2023-09-19T13:41:42;20.00;99.90
24450;DHT22;13349;50.984;5.822;2023-09-19T13:44:10;20.20;99.90
24450;DHT22;13349;50.984;5.822;2023-09-19T13:46:38;20.20;99.90
24450;DHT22;13349;50.984;5.822;2023-09-19T13:49:06;20.00;99.90
24450;DHT22;13349;50.984;5.822;2023-09-19T13:51:33;20.00;99.90
24450;DHT22;13349;50.984;5.822;2023-09-19T13:54:00;20.20;99.90
24450;DHT22;13349;50.984;5.822;2023-09-19T13:56:28;20.20;99.90
24450;DHT22;13349;50.984;5.822;2023-09-19T13:58:56;20.00;99.90
24450;DHT22;13349;50.984;5.822;2023-09-19T14:01:25;19.80;99.90
24450;DHT22;13349;50.984;5.822;2023-09-19T14:03:52;19.70;99.90
24450;DHT22;13349;50.984;5.822;2023-09-19T14:06:22;19.90;99.90
24450;DHT22;13349;50.984;5.822;2023-09-19T14:08:49;20.10;99.90
24450;DHT22;13349;50.984;5.822;2023-09-19T14:11:16;20.10;99.90
24450;DHT22;13349;50.984;5.822;2023-09-19T14:13:43;19.90;99.90
24450;DHT22;13349;50.984;5.822;2023-09-19T14:16:13;19.90;99.90
24450;DHT22;13349;50.984;5.822;2023-09-19T14:18:42;20.10;99.90
24450;DHT22;13349;50.984;5.822;2023-09-19T14:21:09;20.10;99.90
24450;DHT22;13349;50.984;5.822;2023-09-19T14:23:37;20.30;99.90
24450;DHT22;13349;50.984;5.822;2023-09-19T14:26:04;20.40;99.90
24450;DHT22;13349;50.984;5.822;2023-09-19T14:28:31;20.30;99.90
24450;DHT22;13349;50.984;5.822;2023-09-19T14:31:03;20.30;99.90
24450;DHT22;13349;50.984;5.822;2023-09-19T14:33:30;20.00;99.90
24450;DHT22;13349;50.984;5.822;2023-09-19T14:36:00;19.90;99.90
24450;DHT22;13349;50.984;5.822;2023-09-19T14:38:28;19.90;99.90
24450;DHT22;13349;50.984;5.822;2023-09-19T14:40:59;19.90;99.90
24450;DHT22;13349;50.984;5.822;2023-09-19T14:43:26;19.70;99.90
24450;DHT22;13349;50.984;5.822;2023-09-19T14:45:54;19.70;99.90
24450;DHT22;13349;50.984;5.822;2023-09-19T14:48:22;19.70;99.90
24450;DHT22;13349;50.984;5.822;2023-09-19T14:50:51;19.70;99.90
24450;DHT22;13349;50.984;5.822;2023-09-19T14:53:20;19.80;99.90
24450;DHT22;13349;50.984;5.822;2023-09-19T14:55:47;19.90;99.90
24450;DHT22;13349;50.984;5.822;2023-09-19T14:58:17;19.80;99.90
24450;DHT22;13349;50.984;5.822;2023-09-19T15:00:44;19.60;99.90
24450;DHT22;13349;50.984;5.822;2023-09-19T15:03:11;19.50;99.90
24450;DHT22;13349;50.984;5.822;2023-09-19T15:05:39;19.50;99.90
24450;DHT22;13349;50.984;5.822;2023-09-19T15:08:05;19.50;99.90
24450;DHT22;13349;50.984;5.822;2023-09-19T15:10:34;19.50;99.90
24450;DHT22;13349;50.984;5.822;2023-09-19T15:13:01;19.60;99.90
24450;DHT22;13349;50.984;5.822;2023-09-19T15:15:31;19.60;99.90
24450;DHT22;13349;50.984;5.822;2023-09-19T15:17:58;19.60;99.90
24450;DHT22;13349;50.984;5.822;2023-09-19T15:20:25;19.70;99.90
24450;DHT22;13349;50.984;5.822;2023-09-19T15:22:52;20.10;99.90
24450;DHT22;13349;50.984;5.822;2023-09-19T15:25:19;20.60;99.90
24450;DHT22;13349;50.984;5.822;2023-09-19T15:27:47;20.20;99.90
24450;DHT22;13349;50.984;5.822;2023-09-19T15:30:15;19.90;99.90
24450;DHT22;13349;50.984;5.822;2023-09-19T15:32:42;19.80;99.90
24450;DHT22;13349;50.984;5.822;2023-09-19T15:35:09;19.90;99.90
24450;DHT22;13349;50.984;5.822;2023-09-19T15:37:38;19.90;99.90
24450;DHT22;13349;50.984;5.822;2023-09-19T15:40:06;19.70;99.90
24450;DHT22;13349;50.984;5.822;2023-09-19T15:42:36;19.60;99.90
24450;DHT22;13349;50.984;5.822;2023-09-19T15:45:05;19.60;99.90
24450;DHT22;13349;50.984;5.822;2023-09-19T15:47:33;19.60;99.90
24450;DHT22;13349;50.984;5.822;2023-09-19T15:50:00;19.60;99.90
24450;DHT22;13349;50.984;5.822;2023-09-19T15:52:28;19.60;99.90
24450;DHT22;13349;50.984;5.822;2023-09-19T15:54:55;19.60;99.90
24450;DHT22;13349;50.984;5.822;2023-09-19T15:57:22;19.60;99.90
24450;DHT22;13349;50.984;5.822;2023-09-19T15:59:49;19.60;99.90
24450;DHT22;13349;50.984;5.822;2023-09-19T16:02:18;19.60;99.90
24450;DHT22;13349;50.984;5.822;2023-09-19T16:04:45;19.60;99.90
24450;DHT22;13349;50.984;5.822;2023-09-19T16:07:12;19.60;99.90
24450;DHT22;13349;50.984;5.822;2023-09-19T16:09:38;19.60;99.90
24450;DHT22;13349;50.984;5.822;2023-09-19T16:12:05;19.50;99.90